sensor_id;sensor_type;location;lat;lon;timestamp;pressure;altitude;pressure_sealevel;temperature;humidity
68525;BME280;55524;51.380;13.372;2022-12-19T00:01:26;101894.31;;;-4.41;95.92
68525;BME280;55524;51.380;13.372;2022-12-19T00:03:56;101892.53;;;-4.42;95.92
68525;BME280;55524;51.380;13.372;2022-12-19T00:06:23;101912.88;;;-4.49;95.77
68525;BME280;55524;51.380;13.372;2022-12-19T00:08:51;101929.91;;;-4.52;97.53
68525;BME280;55524;51.380;13.372;2022-12-19T00:11:19;101934.03;;;-4.56;96.77
68525;BME280;55524;51.380;13.372;2022-12-19T00:13:46;101919.47;;;-4.55;97.11
68525;BME280;55524;51.380;13.372;2022-12-19T00:16:15;101894.50;;;-4.37;95.61
68525;BME280;55524;51.380;13.372;2022-12-19T00:18:43;101886.72;;;-4.38;95.06
68525;BME280;55524;51.380;13.372;2022-12-19T00:21:11;101867.72;;;-4.21;93.58
68525;BME280;55524;51.380;13.372;2022-12-19T00:23:38;101874.63;;;-4.20;93.30
68525;BME280;55524;51.380;13.372;2022-12-19T00:26:17;101877.16;;;-4.22;93.51
68525;BME280;55524;51.380;13.372;2022-12-19T00:28:45;101878.91;;;-4.21;92.90
68525;BME280;55524;51.380;13.372;2022-12-19T00:31:13;101864.94;;;-4.26;92.94
68525;BME280;55524;51.380;13.372;2022-12-19T00:33:41;101841.38;;;-4.14;91.84
68525;BME280;55524;51.380;13.372;2022-12-19T00:36:11;101845.13;;;-4.07;91.77
68525;BME280;55524;51.380;13.372;2022-12-19T00:38:38;101837.44;;;-4.06;90.92
68525;BME280;55524;51.380;13.372;2022-12-19T00:41:08;101842.66;;;-4.04;90.83
68525;BME280;55524;51.380;13.372;2022-12-19T00:43:35;101844.72;;;-3.97;90.57
68525;BME280;55524;51.380;13.372;2022-12-19T00:46:06;101836.47;;;-3.88;89.53
68525;BME280;55524;51.380;13.372;2022-12-19T00:48:36;101849.19;;;-3.93;89.69
68525;BME280;55524;51.380;13.372;2022-12-19T00:51:09;101833.16;;;-3.86;89.30
68525;BME280;55524;51.380;13.372;2022-12-19T00:53:36;101845.88;;;-3.90;90.13
68525;BME280;55524;51.380;13.372;2022-12-19T00:56:09;101844.16;;;-3.90;90.24
68525;BME280;55524;51.380;13.372;2022-12-19T00:58:36;101861.75;;;-4.01;90.86
68525;BME280;55524;51.380;13.372;2022-12-19T01:01:14;101852.25;;;-4.02;90.61
68525;BME280;55524;51.380;13.372;2022-12-19T01:03:41;101853.13;;;-4.01;90.87
68525;BME280;55524;51.380;13.372;2022-12-19T01:06:08;101845.81;;;-4.11;91.45
68525;BME280;55524;51.380;13.372;2022-12-19T01:08:35;101840.09;;;-4.04;91.10
68525;BME280;55524;51.380;13.372;2022-12-19T01:11:02;101846.06;;;-4.05;91.37
68525;BME280;55524;51.380;13.372;2022-12-19T01:13:30;101835.84;;;-4.04;91.24
68525;BME280;55524;51.380;13.372;2022-12-19T01:16:06;101831.66;;;-4.00;90.91
68525;BME280;55524;51.380;13.372;2022-12-19T01:18:33;101825.72;;;-3.99;90.50
68525;BME280;55524;51.380;13.372;2022-12-19T01:21:02;101809.59;;;-3.93;89.70
68525;BME280;55524;51.380;13.372;2022-12-19T01:23:28;101813.94;;;-3.92;89.20
68525;BME280;55524;51.380;13.372;2022-12-19T01:25:55;101812.25;;;-3.92;89.50
68525;BME280;55524;51.380;13.372;2022-12-19T01:28:22;101810.66;;;-3.88;88.69
68525;BME280;55524;51.380;13.372;2022-12-19T01:30:49;101822.84;;;-3.86;88.12
68525;BME280;55524;51.380;13.372;2022-12-19T01:33:16;101826.09;;;-3.90;88.31
68525;BME280;55524;51.380;13.372;2022-12-19T01:35:45;101814.94;;;-3.89;89.32
68525;BME280;55524;51.380;13.372;2022-12-19T01:38:17;101806.13;;;-3.94;88.80
68525;BME280;55524;51.380;13.372;2022-12-19T01:40:55;101794.97;;;-3.93;88.63
68525;BME280;55524;51.380;13.372;2022-12-19T01:43:24;101802.81;;;-3.91;88.49
68525;BME280;55524;51.380;13.372;2022-12-19T01:46:17;101776.13;;;-3.92;88.09
68525;BME280;55524;51.380;13.372;2022-12-19T01:48:48;101772.56;;;-3.94;88.24
68525;BME280;55524;51.380;13.372;2022-12-19T01:51:20;101781.00;;;-3.98;88.44
68525;BME280;55524;51.380;13.372;2022-12-19T01:57:01;101770.88;;;-3.93;87.27
68525;BME280;55524;51.380;13.372;2022-12-19T01:59:32;101759.38;;;-4.00;87.12
68525;BME280;55524;51.380;13.372;2022-12-19T02:02:06;101758.50;;;-4.01;86.94
68525;BME280;55524;51.380;13.372;2022-12-19T02:04:35;101747.50;;;-3.97;87.01
68525;BME280;55524;51.380;13.372;2022-12-19T02:07:04;101743.78;;;-4.03;86.84
68525;BME280;55524;51.380;13.372;2022-12-19T02:09:31;101755.81;;;-4.04;86.90
68525;BME280;55524;51.380;13.372;2022-12-19T02:11:59;101748.06;;;-4.04;86.89
68525;BME280;55524;51.380;13.372;2022-12-19T02:14:26;101735.91;;;-4.06;86.39
68525;BME280;55524;51.380;13.372;2022-12-19T02:22:40;101729.69;;;-4.11;86.92
68525;BME280;55524;51.380;13.372;2022-12-19T02:25:13;101726.13;;;-4.13;87.04
68525;BME280;55524;51.380;13.372;2022-12-19T02:33:44;101759.00;;;-4.29;87.33
68525;BME280;55524;51.380;13.372;2022-12-19T02:36:36;101770.22;;;-4.28;88.25
68525;BME280;55524;51.380;13.372;2022-12-19T02:39:08;101768.41;;;-4.31;87.57
68525;BME280;55524;51.380;13.372;2022-12-19T02:41:54;101757.78;;;-4.37;87.60
68525;BME280;55524;51.380;13.372;2022-12-19T02:44:30;101766.75;;;-4.29;87.75
68525;BME280;55524;51.380;13.372;2022-12-19T02:46:59;101779.44;;;-4.33;88.15
68525;BME280;55524;51.380;13.372;2022-12-19T02:49:27;101783.72;;;-4.34;88.27
68525;BME280;55524;51.380;13.372;2022-12-19T02:51:53;101779.59;;;-4.30;87.75
68525;BME280;55524;51.380;13.372;2022-12-19T02:54:20;101788.59;;;-4.40;88.20
68525;BME280;55524;51.380;13.372;2022-12-19T03:02:03;101784.56;;;-4.35;89.26
68525;BME280;55524;51.380;13.372;2022-12-19T03:07:02;101787.53;;;-4.45;90.07
68525;BME280;55524;51.380;13.372;2022-12-19T03:09:42;101786.59;;;-4.47;89.79
68525;BME280;55524;51.380;13.372;2022-12-19T03:12:15;101782.56;;;-4.40;88.89
68525;BME280;55524;51.380;13.372;2022-12-19T03:14:47;101794.53;;;-4.42;88.83
68525;BME280;55524;51.380;13.372;2022-12-19T03:17:14;101788.34;;;-4.46;89.21
68525;BME280;55524;51.380;13.372;2022-12-19T03:19:41;101784.25;;;-4.41;88.11
68525;BME280;55524;51.380;13.372;2022-12-19T03:22:07;101792.88;;;-4.40;88.23
68525;BME280;55524;51.380;13.372;2022-12-19T03:24:33;101771.38;;;-4.41;88.16
68525;BME280;55524;51.380;13.372;2022-12-19T03:27:20;101775.16;;;-4.33;87.18
68525;BME280;55524;51.380;13.372;2022-12-19T03:30:00;101773.25;;;-4.37;87.43
68525;BME280;55524;51.380;13.372;2022-12-19T03:32:28;101775.94;;;-4.35;87.79
68525;BME280;55524;51.380;13.372;2022-12-19T03:35:00;101762.69;;;-4.43;87.77
68525;BME280;55524;51.380;13.372;2022-12-19T03:37:34;101760.31;;;-4.38;87.75
68525;BME280;55524;51.380;13.372;2022-12-19T03:40:10;101761.88;;;-4.42;88.25
68525;BME280;55524;51.380;13.372;2022-12-19T03:42:39;101765.31;;;-4.41;87.76
68525;BME280;55524;51.380;13.372;2022-12-19T03:48:49;101781.78;;;-4.39;88.51
68525;BME280;55524;51.380;13.372;2022-12-19T03:51:33;101782.75;;;-4.36;88.11
68525;BME280;55524;51.380;13.372;2022-12-19T03:54:17;101777.84;;;-4.31;88.77
68525;BME280;55524;51.380;13.372;2022-12-19T03:57:05;101773.56;;;-4.31;88.74
68525;BME280;55524;51.380;13.372;2022-12-19T04:02:00;101741.81;;;-4.28;88.63
68525;BME280;55524;51.380;13.372;2022-12-19T04:04:27;101742.84;;;-4.25;88.03
68525;BME280;55524;51.380;13.372;2022-12-19T04:06:55;101747.31;;;-4.21;88.33
68525;BME280;55524;51.380;13.372;2022-12-19T04:09:23;101732.53;;;-4.25;88.30
68525;BME280;55524;51.380;13.372;2022-12-19T04:11:53;101736.13;;;-4.21;89.48
68525;BME280;55524;51.380;13.372;2022-12-19T04:14:28;101725.22;;;-4.15;89.50
68525;BME280;55524;51.380;13.372;2022-12-19T04:20:08;101726.13;;;-4.13;89.28
68525;BME280;55524;51.380;13.372;2022-12-19T04:22:51;101726.97;;;-4.14;89.86
68525;BME280;55524;51.380;13.372;2022-12-19T04:25:32;101726.28;;;-4.10;89.47
68525;BME280;55524;51.380;13.372;2022-12-19T04:28:03;101722.81;;;-4.11;89.75
68525;BME280;55524;51.380;13.372;2022-12-19T04:32:59;101738.50;;;-4.06;90.08
68525;BME280;55524;51.380;13.372;2022-12-19T04:35:25;101731.81;;;-4.01;89.44
68525;BME280;55524;51.380;13.372;2022-12-19T04:37:52;101736.25;;;-3.99;89.53
68525;BME280;55524;51.380;13.372;2022-12-19T04:40:18;101733.72;;;-3.97;88.99
68525;BME280;55524;51.380;13.372;2022-12-19T04:42:44;101727.72;;;-3.96;88.96
68525;BME280;55524;51.380;13.372;2022-12-19T04:45:11;101726.94;;;-3.95;88.85
68525;BME280;55524;51.380;13.372;2022-12-19T04:47:37;101726.94;;;-3.95;89.27
68525;BME280;55524;51.380;13.372;2022-12-19T04:50:03;101732.22;;;-3.92;89.52
68525;BME280;55524;51.380;13.372;2022-12-19T04:52:30;101735.56;;;-3.94;90.04
68525;BME280;55524;51.380;13.372;2022-12-19T04:54:56;101736.44;;;-3.94;90.38
68525;BME280;55524;51.380;13.372;2022-12-19T04:57:22;101725.41;;;-3.90;90.47
68525;BME280;55524;51.380;13.372;2022-12-19T04:59:49;101728.97;;;-3.88;89.82
68525;BME280;55524;51.380;13.372;2022-12-19T05:02:15;101718.50;;;-3.91;90.08
68525;BME280;55524;51.380;13.372;2022-12-19T05:04:41;101705.72;;;-3.88;90.18
68525;BME280;55524;51.380;13.372;2022-12-19T05:07:07;101708.41;;;-3.85;89.80
68525;BME280;55524;51.380;13.372;2022-12-19T05:09:37;101710.28;;;-3.81;89.70
68525;BME280;55524;51.380;13.372;2022-12-19T05:12:03;101707.72;;;-3.81;90.08
68525;BME280;55524;51.380;13.372;2022-12-19T05:14:30;101706.91;;;-3.80;90.44
68525;BME280;55524;51.380;13.372;2022-12-19T05:16:56;101703.56;;;-3.77;90.54
68525;BME280;55524;51.380;13.372;2022-12-19T05:19:22;101708.81;;;-3.76;90.49
68525;BME280;55524;51.380;13.372;2022-12-19T05:21:49;101703.75;;;-3.73;90.94
68525;BME280;55524;51.380;13.372;2022-12-19T05:24:15;101714.03;;;-3.74;91.46
68525;BME280;55524;51.380;13.372;2022-12-19T05:26:41;101724.41;;;-3.73;90.92
68525;BME280;55524;51.380;13.372;2022-12-19T05:29:08;101714.97;;;-3.72;91.21
68525;BME280;55524;51.380;13.372;2022-12-19T05:31:34;101711.19;;;-3.59;91.17
68525;BME280;55524;51.380;13.372;2022-12-19T05:34:01;101714.47;;;-3.63;91.52
68525;BME280;55524;51.380;13.372;2022-12-19T05:36:27;101715.59;;;-3.57;90.85
68525;BME280;55524;51.380;13.372;2022-12-19T05:38:53;101718.16;;;-3.57;91.04
68525;BME280;55524;51.380;13.372;2022-12-19T05:41:20;101721.13;;;-3.48;90.51
68525;BME280;55524;51.380;13.372;2022-12-19T05:43:50;101722.00;;;-3.47;91.25
68525;BME280;55524;51.380;13.372;2022-12-19T05:46:17;101720.31;;;-3.47;91.06
68525;BME280;55524;51.380;13.372;2022-12-19T05:48:43;101710.91;;;-3.44;91.18
68525;BME280;55524;51.380;13.372;2022-12-19T05:51:10;101708.28;;;-3.46;91.41
68525;BME280;55524;51.380;13.372;2022-12-19T05:53:37;101710.03;;;-3.45;90.90
68525;BME280;55524;51.380;13.372;2022-12-19T05:56:12;101705.94;;;-3.40;91.20
68525;BME280;55524;51.380;13.372;2022-12-19T05:58:40;101703.59;;;-3.34;91.48
68525;BME280;55524;51.380;13.372;2022-12-19T06:01:18;101688.22;;;-3.31;90.62
68525;BME280;55524;51.380;13.372;2022-12-19T06:03:45;101695.84;;;-3.34;90.97
68525;BME280;55524;51.380;13.372;2022-12-19T06:06:20;101695.22;;;-3.28;91.15
68525;BME280;55524;51.380;13.372;2022-12-19T06:08:46;101697.00;;;-3.26;90.92
68525;BME280;55524;51.380;13.372;2022-12-19T06:11:13;101701.25;;;-3.28;91.02
68525;BME280;55524;51.380;13.372;2022-12-19T06:13:40;101699.03;;;-3.18;90.81
68525;BME280;55524;51.380;13.372;2022-12-19T06:16:14;101699.97;;;-3.16;90.97
68525;BME280;55524;51.380;13.372;2022-12-19T06:18:41;101700.03;;;-3.15;91.53
68525;BME280;55524;51.380;13.372;2022-12-19T06:21:16;101705.44;;;-3.09;91.41
68525;BME280;55524;51.380;13.372;2022-12-19T06:23:43;101698.66;;;-3.05;91.58
68525;BME280;55524;51.380;13.372;2022-12-19T06:26:11;101697.06;;;-3.02;91.35
68525;BME280;55524;51.380;13.372;2022-12-19T06:28:38;101704.84;;;-3.02;92.09
68525;BME280;55524;51.380;13.372;2022-12-19T06:31:05;101703.38;;;-2.95;91.51
68525;BME280;55524;51.380;13.372;2022-12-19T06:33:32;101687.09;;;-2.92;91.73
68525;BME280;55524;51.380;13.372;2022-12-19T06:36:07;101681.38;;;-2.84;91.11
68525;BME280;55524;51.380;13.372;2022-12-19T06:38:35;101675.38;;;-2.83;90.78
68525;BME280;55524;51.380;13.372;2022-12-19T06:41:02;101671.16;;;-2.81;91.07
68525;BME280;55524;51.380;13.372;2022-12-19T06:43:48;101679.84;;;-2.79;90.92
68525;BME280;55524;51.380;13.372;2022-12-19T06:46:14;101677.38;;;-2.76;91.23
68525;BME280;55524;51.380;13.372;2022-12-19T06:48:41;101679.25;;;-2.72;91.32
68525;BME280;55524;51.380;13.372;2022-12-19T06:51:07;101673.25;;;-2.70;91.65
68525;BME280;55524;51.380;13.372;2022-12-19T06:53:34;101680.09;;;-2.73;91.65
68525;BME280;55524;51.380;13.372;2022-12-19T06:56:00;101688.88;;;-2.67;91.81
68525;BME280;55524;51.380;13.372;2022-12-19T06:58:27;101674.19;;;-2.68;91.90
68525;BME280;55524;51.380;13.372;2022-12-19T07:01:02;101682.28;;;-2.59;91.34
68525;BME280;55524;51.380;13.372;2022-12-19T07:03:37;101690.88;;;-2.60;91.56
68525;BME280;55524;51.380;13.372;2022-12-19T07:06:05;101689.16;;;-2.60;91.70
68525;BME280;55524;51.380;13.372;2022-12-19T07:08:41;101685.25;;;-2.49;92.01
68525;BME280;55524;51.380;13.372;2022-12-19T07:11:07;101680.13;;;-2.47;91.83
68525;BME280;55524;51.380;13.372;2022-12-19T07:13:34;101678.66;;;-2.40;91.40
68525;BME280;55524;51.380;13.372;2022-12-19T07:16:01;101673.47;;;-2.40;90.71
68525;BME280;55524;51.380;13.372;2022-12-19T07:18:31;101672.38;;;-2.47;90.97
68525;BME280;55524;51.380;13.372;2022-12-19T07:20:59;101667.19;;;-2.47;90.59
68525;BME280;55524;51.380;13.372;2022-12-19T07:23:25;101665.44;;;-2.48;90.49
68525;BME280;55524;51.380;13.372;2022-12-19T07:25:52;101671.31;;;-2.52;90.63
68525;BME280;55524;51.380;13.372;2022-12-19T07:28:18;101662.47;;;-2.59;91.20
68525;BME280;55524;51.380;13.372;2022-12-19T07:30:44;101673.84;;;-2.54;90.84
68525;BME280;55524;51.380;13.372;2022-12-19T07:33:10;101667.06;;;-2.50;90.68
68525;BME280;55524;51.380;13.372;2022-12-19T07:35:37;101667.78;;;-2.54;90.72
68525;BME280;55524;51.380;13.372;2022-12-19T07:38:04;101672.19;;;-2.52;90.97
68525;BME280;55524;51.380;13.372;2022-12-19T07:40:31;101681.84;;;-2.48;90.49
68525;BME280;55524;51.380;13.372;2022-12-19T07:43:04;101681.00;;;-2.47;90.74
68525;BME280;55524;51.380;13.372;2022-12-19T07:45:31;101674.38;;;-2.38;90.58
68525;BME280;55524;51.380;13.372;2022-12-19T07:48:07;101673.63;;;-2.36;90.30
68525;BME280;55524;51.380;13.372;2022-12-19T07:50:34;101678.81;;;-2.36;90.07
68525;BME280;55524;51.380;13.372;2022-12-19T07:53:00;101687.41;;;-2.37;89.65
68525;BME280;55524;51.380;13.372;2022-12-19T07:55:27;101681.28;;;-2.39;89.75
68525;BME280;55524;51.380;13.372;2022-12-19T07:57:53;101688.44;;;-2.32;89.58
68525;BME280;55524;51.380;13.372;2022-12-19T08:00:20;101686.00;;;-2.27;89.26
68525;BME280;55524;51.380;13.372;2022-12-19T08:02:47;101687.09;;;-2.20;89.09
68525;BME280;55524;51.380;13.372;2022-12-19T08:05:13;101685.44;;;-2.18;89.37
68525;BME280;55524;51.380;13.372;2022-12-19T08:07:39;101680.41;;;-2.14;89.41
68525;BME280;55524;51.380;13.372;2022-12-19T08:10:06;101679.81;;;-2.07;88.64
68525;BME280;55524;51.380;13.372;2022-12-19T08:12:33;101666.13;;;-2.03;89.01
68525;BME280;55524;51.380;13.372;2022-12-19T08:14:59;101661.00;;;-2.01;88.59
68525;BME280;55524;51.380;13.372;2022-12-19T08:17:25;101653.28;;;-2.00;89.13
68525;BME280;55524;51.380;13.372;2022-12-19T08:19:52;101663.00;;;-1.94;89.58
68525;BME280;55524;51.380;13.372;2022-12-19T08:22:18;101654.72;;;-1.82;89.62
68525;BME280;55524;51.380;13.372;2022-12-19T08:24:44;101654.72;;;-1.82;89.26
68525;BME280;55524;51.380;13.372;2022-12-19T08:27:10;101633.22;;;-1.80;89.00
68525;BME280;55524;51.380;13.372;2022-12-19T08:29:40;101621.25;;;-1.76;88.74
68525;BME280;55524;51.380;13.372;2022-12-19T08:32:06;101622.38;;;-1.68;88.65
68525;BME280;55524;51.380;13.372;2022-12-19T08:34:32;101628.41;;;-1.67;88.64
68525;BME280;55524;51.380;13.372;2022-12-19T08:36:59;101621.63;;;-1.64;88.38
68525;BME280;55524;51.380;13.372;2022-12-19T08:39:25;101618.41;;;-1.57;87.61
68525;BME280;55524;51.380;13.372;2022-12-19T08:41:53;101616.88;;;-1.50;87.25
68525;BME280;55524;51.380;13.372;2022-12-19T08:44:19;101621.25;;;-1.48;87.80
68525;BME280;55524;51.380;13.372;2022-12-19T08:46:45;101617.25;;;-1.38;87.29
68525;BME280;55524;51.380;13.372;2022-12-19T08:49:12;101608.00;;;-1.30;87.24
68525;BME280;55524;51.380;13.372;2022-12-19T08:51:38;101608.91;;;-1.28;86.14
68525;BME280;55524;51.380;13.372;2022-12-19T08:54:04;101604.78;;;-1.21;85.64
68525;BME280;55524;51.380;13.372;2022-12-19T08:56:30;101611.84;;;-1.15;86.12
68525;BME280;55524;51.380;13.372;2022-12-19T08:58:57;101604.03;;;-1.17;85.43
68525;BME280;55524;51.380;13.372;2022-12-19T09:01:23;101610.31;;;-1.10;85.88
68525;BME280;55524;51.380;13.372;2022-12-19T09:03:50;101612.03;;;-1.11;86.16
68525;BME280;55524;51.380;13.372;2022-12-19T09:06:17;101600.94;;;-1.05;85.81
68525;BME280;55524;51.380;13.372;2022-12-19T09:08:43;101601.84;;;-1.03;86.03
68525;BME280;55524;51.380;13.372;2022-12-19T09:11:12;101603.75;;;-0.97;86.26
68525;BME280;55524;51.380;13.372;2022-12-19T09:13:40;101603.03;;;-0.92;86.13
68525;BME280;55524;51.380;13.372;2022-12-19T09:16:19;101584.16;;;-0.86;85.23
68525;BME280;55524;51.380;13.372;2022-12-19T09:18:48;101592.22;;;-0.76;85.65
68525;BME280;55524;51.380;13.372;2022-12-19T09:21:15;101580.91;;;-0.79;85.21
68525;BME280;55524;51.380;13.372;2022-12-19T09:23:46;101580.22;;;-0.72;84.56
68525;BME280;55524;51.380;13.372;2022-12-19T09:26:13;101575.03;;;-0.72;84.81
68525;BME280;55524;51.380;13.372;2022-12-19T09:28:40;101580.34;;;-0.67;84.80
68525;BME280;55524;51.380;13.372;2022-12-19T09:31:12;101583.13;;;-0.61;85.55
68525;BME280;55524;51.380;13.372;2022-12-19T09:33:39;101577.03;;;-0.62;85.54
68525;BME280;55524;51.380;13.372;2022-12-19T09:36:06;101576.31;;;-0.56;85.51
68525;BME280;55524;51.380;13.372;2022-12-19T09:38:35;101564.47;;;-0.46;85.08
68525;BME280;55524;51.380;13.372;2022-12-19T09:46:16;101559.47;;;-0.39;84.82
68525;BME280;55524;51.380;13.372;2022-12-19T09:48:45;101558.72;;;-0.35;84.46
68525;BME280;55524;51.380;13.372;2022-12-19T09:51:37;101558.97;;;-0.24;84.80
68525;BME280;55524;51.380;13.372;2022-12-19T09:54:13;101563.44;;;-0.18;84.82
68525;BME280;55524;51.380;13.372;2022-12-19T09:56:43;101566.13;;;-0.15;84.43
68525;BME280;55524;51.380;13.372;2022-12-19T09:59:37;101570.59;;;-0.08;84.82
68525;BME280;55524;51.380;13.372;2022-12-19T10:05:25;101571.69;;;0.00;84.91
68525;BME280;55524;51.380;13.372;2022-12-19T10:07:53;101566.53;;;0.03;84.90
68525;BME280;55524;51.380;13.372;2022-12-19T10:16:00;101551.47;;;0.24;85.73
68525;BME280;55524;51.380;13.372;2022-12-19T10:18:46;101545.94;;;0.11;86.60
68525;BME280;55524;51.380;13.372;2022-12-19T10:23:56;101549.75;;;0.25;86.83
68525;BME280;55524;51.380;13.372;2022-12-19T10:26:33;101539.59;;;0.36;86.41
68525;BME280;55524;51.380;13.372;2022-12-19T10:34:52;101524.97;;;0.42;87.86
68525;BME280;55524;51.380;13.372;2022-12-19T10:37:20;101524.28;;;0.49;87.80
68525;BME280;55524;51.380;13.372;2022-12-19T10:40:10;101527.81;;;0.52;87.78
68525;BME280;55524;51.380;13.372;2022-12-19T10:45:43;101519.50;;;0.69;87.77
68525;BME280;55524;51.380;13.372;2022-12-19T10:48:17;101520.34;;;0.68;88.07
68525;BME280;55524;51.380;13.372;2022-12-19T10:50:44;101507.44;;;0.73;88.14
68525;BME280;55524;51.380;13.372;2022-12-19T10:53:12;101503.22;;;0.80;88.02
68525;BME280;55524;51.380;13.372;2022-12-19T10:58:32;101498.13;;;0.86;88.02
68525;BME280;55524;51.380;13.372;2022-12-19T11:01:13;101501.66;;;0.88;88.30
68525;BME280;55524;51.380;13.372;2022-12-19T11:03:50;101503.34;;;0.86;88.62
68525;BME280;55524;51.380;13.372;2022-12-19T11:09:24;101493.72;;;0.82;89.10
68525;BME280;55524;51.380;13.372;2022-12-19T11:14:30;101492.94;;;0.86;90.59
68525;BME280;55524;51.380;13.372;2022-12-19T11:16:57;101495.22;;;0.69;91.45
68525;BME280;55524;51.380;13.372;2022-12-19T11:19:35;101483.28;;;0.80;91.15
68525;BME280;55524;51.380;13.372;2022-12-19T11:22:29;101481.50;;;0.79;91.73
68525;BME280;55524;51.380;13.372;2022-12-19T11:24:56;101480.84;;;0.88;91.92
68525;BME280;55524;51.380;13.372;2022-12-19T11:27:45;101473.84;;;0.87;90.86
68525;BME280;55524;51.380;13.372;2022-12-19T11:30:26;101462.63;;;0.88;92.01
68525;BME280;55524;51.380;13.372;2022-12-19T11:33:12;101457.44;;;0.88;91.94
68525;BME280;55524;51.380;13.372;2022-12-19T11:35:50;101451.38;;;0.90;92.39
68525;BME280;55524;51.380;13.372;2022-12-19T11:54:49;101417.88;;;1.07;91.81
68525;BME280;55524;51.380;13.372;2022-12-19T11:57:20;101405.63;;;1.02;91.68
68525;BME280;55524;51.380;13.372;2022-12-19T11:59:47;101406.53;;;1.05;92.39
68525;BME280;55524;51.380;13.372;2022-12-19T12:02:51;101406.47;;;1.01;91.76
68525;BME280;55524;51.380;13.372;2022-12-19T12:11:39;101397.94;;;1.09;92.27
68525;BME280;55524;51.380;13.372;2022-12-19T12:14:18;101395.44;;;1.15;92.07
68525;BME280;55524;51.380;13.372;2022-12-19T12:25:09;101403.88;;;1.01;94.74
68525;BME280;55524;51.380;13.372;2022-12-19T12:36:39;101387.44;;;1.03;95.83
68525;BME280;55524;51.380;13.372;2022-12-19T12:44:36;101372.63;;;0.99;97.52
68525;BME280;55524;51.380;13.372;2022-12-19T12:47:19;101374.44;;;1.03;97.98
68525;BME280;55524;51.380;13.372;2022-12-19T12:49:50;101367.50;;;1.05;98.12
68525;BME280;55524;51.380;13.372;2022-12-19T12:52:37;101363.91;;;0.98;99.64
68525;BME280;55524;51.380;13.372;2022-12-19T12:55:38;101360.31;;;0.90;100.00
68525;BME280;55524;51.380;13.372;2022-12-19T12:57:58;101362.88;;;0.87;100.00
68525;BME280;55524;51.380;13.372;2022-12-19T13:08:38;101350.56;;;0.76;100.00
68525;BME280;55524;51.380;13.372;2022-12-19T13:24:58;101325.22;;;0.67;100.00
68525;BME280;55524;51.380;13.372;2022-12-19T13:37:50;101334.66;;;0.60;100.00
68525;BME280;55524;51.380;13.372;2022-12-19T13:46:03;101328.47;;;0.54;100.00
68525;BME280;55524;51.380;13.372;2022-12-19T13:48:50;101324.94;;;0.50;100.00
68525;BME280;55524;51.380;13.372;2022-12-19T13:54:32;101328.56;;;0.58;100.00
68525;BME280;55524;51.380;13.372;2022-12-19T13:57:17;101320.75;;;0.58;100.00
68525;BME280;55524;51.380;13.372;2022-12-19T13:59:45;101319.06;;;0.60;100.00
68525;BME280;55524;51.380;13.372;2022-12-19T14:02:39;101317.25;;;0.56;100.00
68525;BME280;55524;51.380;13.372;2022-12-19T14:05:29;101314.66;;;0.56;100.00
68525;BME280;55524;51.380;13.372;2022-12-19T14:08:20;101319.88;;;0.58;100.00
68525;BME280;55524;51.380;13.372;2022-12-19T14:10:58;101315.56;;;0.58;100.00
68525;BME280;55524;51.380;13.372;2022-12-19T14:13:33;101311.22;;;0.59;100.00
68525;BME280;55524;51.380;13.372;2022-12-19T14:16:23;101314.75;;;0.62;100.00
68525;BME280;55524;51.380;13.372;2022-12-19T14:22:10;101319.81;;;0.55;100.00
68525;BME280;55524;51.380;13.372;2022-12-19T14:24:37;101322.41;;;0.55;100.00
68525;BME280;55524;51.380;13.372;2022-12-19T14:27:09;101323.28;;;0.54;100.00
68525;BME280;55524;51.380;13.372;2022-12-19T14:29:48;101320.69;;;0.55;100.00
68525;BME280;55524;51.380;13.372;2022-12-19T14:32:21;101318.94;;;0.54;100.00
68525;BME280;55524;51.380;13.372;2022-12-19T14:34:51;101318.16;;;0.58;100.00
68525;BME280;55524;51.380;13.372;2022-12-19T14:37:32;101307.72;;;0.57;100.00
68525;BME280;55524;51.380;13.372;2022-12-19T14:40:13;101313.81;;;0.59;100.00
68525;BME280;55524;51.380;13.372;2022-12-19T14:42:43;101327.66;;;0.56;100.00
68525;BME280;55524;51.380;13.372;2022-12-19T14:45:41;101330.19;;;0.53;100.00
68525;BME280;55524;51.380;13.372;2022-12-19T14:48:28;101326.69;;;0.51;100.00
68525;BME280;55524;51.380;13.372;2022-12-19T14:51:27;101319.81;;;0.53;100.00
68525;BME280;55524;51.380;13.372;2022-12-19T14:56:59;101325.00;;;0.52;100.00
68525;BME280;55524;51.380;13.372;2022-12-19T15:04:40;101326.78;;;0.56;100.00
68525;BME280;55524;51.380;13.372;2022-12-19T15:07:19;101318.09;;;0.55;100.00
68525;BME280;55524;51.380;13.372;2022-12-19T15:09:54;101316.34;;;0.54;100.00
68525;BME280;55524;51.380;13.372;2022-12-19T15:12:34;101307.81;;;0.61;100.00
68525;BME280;55524;51.380;13.372;2022-12-19T15:18:17;101299.22;;;0.65;100.00
68525;BME280;55524;51.380;13.372;2022-12-19T15:20:45;101306.94;;;0.62;100.00
68525;BME280;55524;51.380;13.372;2022-12-19T15:23:11;101304.41;;;0.65;100.00
68525;BME280;55524;51.380;13.372;2022-12-19T15:25:38;101309.56;;;0.62;100.00
68525;BME280;55524;51.380;13.372;2022-12-19T15:28:16;101314.00;;;0.68;100.00
68525;BME280;55524;51.380;13.372;2022-12-19T15:30:54;101307.81;;;0.63;100.00
68525;BME280;55524;51.380;13.372;2022-12-19T15:33:22;101304.47;;;0.70;100.00
68525;BME280;55524;51.380;13.372;2022-12-19T15:35:49;101313.06;;;0.64;100.00
68525;BME280;55524;51.380;13.372;2022-12-19T15:38:15;101312.16;;;0.62;100.00
68525;BME280;55524;51.380;13.372;2022-12-19T15:40:42;101308.69;;;0.63;100.00
68525;BME280;55524;51.380;13.372;2022-12-19T15:43:16;101308.81;;;0.68;100.00
68525;BME280;55524;51.380;13.372;2022-12-19T15:45:44;101312.28;;;0.68;100.00
68525;BME280;55524;51.380;13.372;2022-12-19T15:48:14;101308.75;;;0.65;100.00
68525;BME280;55524;51.380;13.372;2022-12-19T15:53:56;101307.94;;;0.67;100.00